sensor_id;sensor_type;location;lat;lon;timestamp;pressure;altitude;pressure_sealevel;temperature;humidity
24666;BME280;29726;53.532;-1.478;2024-03-06T00:01:04;100865.69;;;10.59;100.00
24666;BME280;29726;53.532;-1.478;2024-03-06T00:03:48;100888.22;;;10.73;100.00
24666;BME280;29726;53.532;-1.478;2024-03-06T00:06:32;100887.91;;;10.71;100.00
24666;BME280;29726;53.532;-1.478;2024-03-06T00:09:16;100880.91;;;10.67;100.00
24666;BME280;29726;53.532;-1.478;2024-03-06T00:12:00;100891.00;;;10.64;100.00
24666;BME280;29726;53.532;-1.478;2024-03-06T00:14:44;100886.97;;;10.65;100.00
24666;BME280;29726;53.532;-1.478;2024-03-06T00:17:28;100885.09;;;10.62;100.00
24666;BME280;29726;53.532;-1.478;2024-03-06T00:20:12;100884.91;;;10.57;100.00
24666;BME280;29726;53.532;-1.478;2024-03-06T00:22:56;100887.69;;;10.57;100.00
24666;BME280;29726;53.532;-1.478;2024-03-06T00:25:40;100896.84;;;10.57;100.00
24666;BME280;29726;53.532;-1.478;2024-03-06T00:28:24;100882.84;;;10.48;100.00
24666;BME280;29726;53.532;-1.478;2024-03-06T00:31:08;100836.94;;;10.19;100.00
24666;BME280;29726;53.532;-1.478;2024-03-06T00:33:52;100889.22;;;10.49;100.00
24666;BME280;29726;53.532;-1.478;2024-03-06T00:36:37;100887.47;;;10.42;100.00
24666;BME280;29726;53.532;-1.478;2024-03-06T00:39:21;100890.56;;;10.44;100.00
24666;BME280;29726;53.532;-1.478;2024-03-06T00:42:05;100885.44;;;10.43;100.00
24666;BME280;29726;53.532;-1.478;2024-03-06T00:44:49;100885.72;;;10.36;100.00
24666;BME280;29726;53.532;-1.478;2024-03-06T00:47:33;100891.19;;;10.39;100.00
24666;BME280;29726;53.532;-1.478;2024-03-06T00:50:18;100890.06;;;10.37;100.00
24666;BME280;29726;53.532;-1.478;2024-03-06T00:53:06;100896.56;;;10.34;100.00
24666;BME280;29726;53.532;-1.478;2024-03-06T00:55:49;100893.88;;;10.30;100.00
24666;BME280;29726;53.532;-1.478;2024-03-06T00:58:33;100902.94;;;10.34;100.00
24666;BME280;29726;53.532;-1.478;2024-03-06T01:01:17;100899.03;;;10.32;100.00
24666;BME280;29726;53.532;-1.478;2024-03-06T01:04:02;100900.88;;;10.26;100.00
24666;BME280;29726;53.532;-1.478;2024-03-06T01:06:46;100904.56;;;10.23;100.00
24666;BME280;29726;53.532;-1.478;2024-03-06T01:09:31;100914.81;;;10.26;100.00
24666;BME280;29726;53.532;-1.478;2024-03-06T01:12:15;100910.59;;;10.21;100.00
24666;BME280;29726;53.532;-1.478;2024-03-06T01:14:59;100907.03;;;10.21;100.00
24666;BME280;29726;53.532;-1.478;2024-03-06T01:17:43;100899.53;;;10.18;100.00
24666;BME280;29726;53.532;-1.478;2024-03-06T01:20:27;100905.28;;;10.14;100.00
24666;BME280;29726;53.532;-1.478;2024-03-06T01:23:12;100894.84;;;10.06;100.00
24666;BME280;29726;53.532;-1.478;2024-03-06T01:25:55;100908.66;;;10.09;100.00
24666;BME280;29726;53.532;-1.478;2024-03-06T01:28:39;100896.31;;;9.98;100.00
24666;BME280;29726;53.532;-1.478;2024-03-06T01:31:23;100899.78;;;10.02;100.00
24666;BME280;29726;53.532;-1.478;2024-03-06T01:34:07;100897.50;;;9.97;100.00
24666;BME280;29726;53.532;-1.478;2024-03-06T01:36:52;100902.75;;;9.95;100.00
24666;BME280;29726;53.532;-1.478;2024-03-06T01:39:36;100910.69;;;9.96;100.00
24666;BME280;29726;53.532;-1.478;2024-03-06T01:42:21;100908.03;;;9.93;100.00
24666;BME280;29726;53.532;-1.478;2024-03-06T01:45:05;100916.84;;;9.91;100.00
24666;BME280;29726;53.532;-1.478;2024-03-06T01:47:50;100918.19;;;9.87;100.00
24666;BME280;29726;53.532;-1.478;2024-03-06T01:50:34;100918.31;;;9.83;100.00
24666;BME280;29726;53.532;-1.478;2024-03-06T01:53:18;100915.66;;;9.80;100.00
24666;BME280;29726;53.532;-1.478;2024-03-06T01:56:04;100912.88;;;9.80;100.00
24666;BME280;29726;53.532;-1.478;2024-03-06T01:58:49;100920.25;;;9.74;100.00
24666;BME280;29726;53.532;-1.478;2024-03-06T02:01:34;100920.25;;;9.74;100.00
24666;BME280;29726;53.532;-1.478;2024-03-06T02:04:18;100922.72;;;9.72;100.00
24666;BME280;29726;53.532;-1.478;2024-03-06T02:07:02;100917.06;;;9.63;100.00
24666;BME280;29726;53.532;-1.478;2024-03-06T02:09:47;100920.06;;;9.69;100.00
24666;BME280;29726;53.532;-1.478;2024-03-06T02:12:32;100913.06;;;9.64;100.00
24666;BME280;29726;53.532;-1.478;2024-03-06T02:15:16;100917.06;;;9.63;100.00
24666;BME280;29726;53.532;-1.478;2024-03-06T02:18:05;100908.16;;;9.56;100.00
24666;BME280;29726;53.532;-1.478;2024-03-06T02:20:49;100911.16;;;9.61;100.00
24666;BME280;29726;53.532;-1.478;2024-03-06T02:23:34;100908.97;;;9.56;100.00
24666;BME280;29726;53.532;-1.478;2024-03-06T02:26:18;100879.03;;;9.35;100.00
24666;BME280;29726;53.532;-1.478;2024-03-06T02:29:02;100902.72;;;9.52;100.00
24666;BME280;29726;53.532;-1.478;2024-03-06T02:31:46;100895.81;;;9.44;100.00
24666;BME280;29726;53.532;-1.478;2024-03-06T02:34:30;100907.50;;;9.52;100.00
24666;BME280;29726;53.532;-1.478;2024-03-06T02:37:14;100906.06;;;9.47;100.00
24666;BME280;29726;53.532;-1.478;2024-03-06T02:39:57;100902.94;;;9.45;100.00
24666;BME280;29726;53.532;-1.478;2024-03-06T02:42:43;100900.75;;;9.40;100.00
24666;BME280;29726;53.532;-1.478;2024-03-06T02:45:27;100899.63;;;9.38;100.00
24666;BME280;29726;53.532;-1.478;2024-03-06T02:48:11;100905.66;;;9.36;100.00
24666;BME280;29726;53.532;-1.478;2024-03-06T02:50:55;100901.66;;;9.37;100.00
24666;BME280;29726;53.532;-1.478;2024-03-06T02:53:39;100898.22;;;9.33;100.00
24666;BME280;29726;53.532;-1.478;2024-03-06T02:56:23;100900.34;;;9.29;100.00
24666;BME280;29726;53.532;-1.478;2024-03-06T02:59:07;100903.13;;;9.29;100.00
24666;BME280;29726;53.532;-1.478;2024-03-06T03:01:51;100908.69;;;9.29;100.00
24666;BME280;29726;53.532;-1.478;2024-03-06T03:04:35;100893.91;;;9.20;100.00
24666;BME280;29726;53.532;-1.478;2024-03-06T03:07:19;100900.13;;;9.24;100.00
24666;BME280;29726;53.532;-1.478;2024-03-06T03:10:04;100885.66;;;9.16;100.00
24666;BME280;29726;53.532;-1.478;2024-03-06T03:12:52;100899.34;;;9.23;100.00
24666;BME280;29726;53.532;-1.478;2024-03-06T03:15:37;100897.59;;;9.17;100.00
24666;BME280;29726;53.532;-1.478;2024-03-06T03:18:20;100898.44;;;9.14;100.00
24666;BME280;29726;53.532;-1.478;2024-03-06T03:21:08;100874.44;;;8.95;100.00
24666;BME280;29726;53.532;-1.478;2024-03-06T03:23:52;100915.50;;;9.16;100.00
24666;BME280;29726;53.532;-1.478;2024-03-06T03:26:36;100907.28;;;9.12;100.00
24666;BME280;29726;53.532;-1.478;2024-03-06T03:29:21;100867.41;;;8.90;100.00
24666;BME280;29726;53.532;-1.478;2024-03-06T03:32:05;100889.91;;;9.08;100.00
24666;BME280;29726;53.532;-1.478;2024-03-06T03:34:49;100899.03;;;9.09;100.00
24666;BME280;29726;53.532;-1.478;2024-03-06T03:37:33;100893.59;;;9.05;100.00
24666;BME280;29726;53.532;-1.478;2024-03-06T03:40:18;100894.78;;;9.04;100.00
24666;BME280;29726;53.532;-1.478;2024-03-06T03:43:02;100894.47;;;9.02;100.00
24666;BME280;29726;53.532;-1.478;2024-03-06T03:45:50;100898.78;;;9.03;100.00
24666;BME280;29726;53.532;-1.478;2024-03-06T03:48:34;100903.59;;;9.03;100.00
24666;BME280;29726;53.532;-1.478;2024-03-06T03:51:21;100899.84;;;8.97;100.00
24666;BME280;29726;53.532;-1.478;2024-03-06T03:54:06;100900.50;;;9.01;100.00
24666;BME280;29726;53.532;-1.478;2024-03-06T03:56:50;100897.81;;;8.97;100.00
24666;BME280;29726;53.532;-1.478;2024-03-06T03:59:34;100894.69;;;8.95;100.00
24666;BME280;29726;53.532;-1.478;2024-03-06T04:02:18;100888.69;;;8.97;100.00
24666;BME280;29726;53.532;-1.478;2024-03-06T04:05:05;100889.22;;;8.92;100.00
24666;BME280;29726;53.532;-1.478;2024-03-06T04:07:49;100893.56;;;8.93;100.00
24666;BME280;29726;53.532;-1.478;2024-03-06T04:10:33;100897.94;;;8.94;100.00
24666;BME280;29726;53.532;-1.478;2024-03-06T04:13:17;100892.16;;;8.88;100.00
24666;BME280;29726;53.532;-1.478;2024-03-06T04:16:04;100878.91;;;8.80;100.00
24666;BME280;29726;53.532;-1.478;2024-03-06T04:18:48;100900.94;;;8.87;100.00
24666;BME280;29726;53.532;-1.478;2024-03-06T04:21:32;100900.03;;;8.90;100.00
24666;BME280;29726;53.532;-1.478;2024-03-06T04:24:16;100896.59;;;8.86;100.00
24666;BME280;29726;53.532;-1.478;2024-03-06T04:27:00;100887.16;;;8.83;100.00
24666;BME280;29726;53.532;-1.478;2024-03-06T04:29:44;100871.31;;;8.68;100.00
24666;BME280;29726;53.532;-1.478;2024-03-06T04:32:28;100904.94;;;8.86;100.00
24666;BME280;29726;53.532;-1.478;2024-03-06T04:35:12;100902.16;;;8.86;100.00
24666;BME280;29726;53.532;-1.478;2024-03-06T04:37:56;100915.66;;;8.87;100.00
24666;BME280;29726;53.532;-1.478;2024-03-06T04:40:40;100918.09;;;8.85;100.00
24666;BME280;29726;53.532;-1.478;2024-03-06T04:43:24;100920.09;;;8.85;100.00
24666;BME280;29726;53.532;-1.478;2024-03-06T04:46:12;100914.53;;;8.85;100.00
24666;BME280;29726;53.532;-1.478;2024-03-06T04:48:58;100913.84;;;8.81;100.00
24666;BME280;29726;53.532;-1.478;2024-03-06T04:51:42;100920.97;;;8.82;100.00
24666;BME280;29726;53.532;-1.478;2024-03-06T04:54:26;100913.84;;;8.81;100.00
24666;BME280;29726;53.532;-1.478;2024-03-06T04:57:09;100928.09;;;8.83;100.00
24666;BME280;29726;53.532;-1.478;2024-03-06T04:59:53;100923.44;;;8.80;100.00
24666;BME280;29726;53.532;-1.478;2024-03-06T05:02:38;100926.56;;;8.82;100.00
24666;BME280;29726;53.532;-1.478;2024-03-06T05:05:22;100924.31;;;8.77;100.00
24666;BME280;29726;53.532;-1.478;2024-03-06T05:08:07;100937.34;;;8.80;100.00
24666;BME280;29726;53.532;-1.478;2024-03-06T05:10:51;100924.31;;;8.77;100.00
24666;BME280;29726;53.532;-1.478;2024-03-06T05:13:35;100926.66;;;8.78;100.00
24666;BME280;29726;53.532;-1.478;2024-03-06T05:16:19;100931.78;;;8.80;100.00
24666;BME280;29726;53.532;-1.478;2024-03-06T05:19:02;100928.34;;;8.76;100.00
24666;BME280;29726;53.532;-1.478;2024-03-06T05:21:47;100928.34;;;8.76;100.00
24666;BME280;29726;53.532;-1.478;2024-03-06T05:24:31;100930.78;;;8.74;100.00
24666;BME280;29726;53.532;-1.478;2024-03-06T05:27:15;100942.59;;;8.78;100.00
24666;BME280;29726;53.532;-1.478;2024-03-06T05:30:02;100938.56;;;8.79;100.00
24666;BME280;29726;53.532;-1.478;2024-03-06T05:32:49;100936.69;;;8.76;100.00
24666;BME280;29726;53.532;-1.478;2024-03-06T05:35:33;100939.47;;;8.76;100.00
24666;BME280;29726;53.532;-1.478;2024-03-06T05:38:17;100940.22;;;8.76;100.00
24666;BME280;29726;53.532;-1.478;2024-03-06T05:41:03;100941.91;;;8.74;100.00
24666;BME280;29726;53.532;-1.478;2024-03-06T05:43:46;100945.47;;;8.74;100.00
24666;BME280;29726;53.532;-1.478;2024-03-06T05:46:30;100948.16;;;8.78;100.00
24666;BME280;29726;53.532;-1.478;2024-03-06T05:49:14;100949.03;;;8.75;100.00
24666;BME280;29726;53.532;-1.478;2024-03-06T05:51:58;100956.50;;;8.78;100.00
24666;BME280;29726;53.532;-1.478;2024-03-06T05:54:42;100945.47;;;8.74;100.00
24666;BME280;29726;53.532;-1.478;2024-03-06T05:57:26;100951.50;;;8.73;100.00
24666;BME280;29726;53.532;-1.478;2024-03-06T06:00:11;100950.69;;;8.72;100.00
24666;BME280;29726;53.532;-1.478;2024-03-06T06:02:55;100970.41;;;8.78;100.00
24666;BME280;29726;53.532;-1.478;2024-03-06T06:05:39;100954.81;;;8.68;100.00
24666;BME280;29726;53.532;-1.478;2024-03-06T06:08:24;100960.69;;;8.70;100.00
24666;BME280;29726;53.532;-1.478;2024-03-06T06:11:08;100959.50;;;8.71;100.00
24666;BME280;29726;53.532;-1.478;2024-03-06T06:13:52;100974.84;;;8.75;100.00
24666;BME280;29726;53.532;-1.478;2024-03-06T06:16:37;100956.81;;;8.67;100.00
24666;BME280;29726;53.532;-1.478;2024-03-06T06:19:22;100961.16;;;8.68;100.00
24666;BME280;29726;53.532;-1.478;2024-03-06T06:22:06;100974.84;;;8.75;100.00
24666;BME280;29726;53.532;-1.478;2024-03-06T06:24:50;100956.16;;;8.63;100.00
24666;BME280;29726;53.532;-1.478;2024-03-06T06:27:35;100972.88;;;8.76;100.00
24666;BME280;29726;53.532;-1.478;2024-03-06T06:30:19;100971.75;;;8.73;100.00
24666;BME280;29726;53.532;-1.478;2024-03-06T06:33:04;100961.94;;;8.69;100.00
24666;BME280;29726;53.532;-1.478;2024-03-06T06:35:48;100972.06;;;8.75;100.00
24666;BME280;29726;53.532;-1.478;2024-03-06T06:38:32;100976.41;;;8.76;100.00
24666;BME280;29726;53.532;-1.478;2024-03-06T06:41:17;100979.53;;;8.78;100.00
24666;BME280;29726;53.532;-1.478;2024-03-06T06:44:01;100982.00;;;8.76;100.00
24666;BME280;29726;53.532;-1.478;2024-03-06T06:46:46;100985.91;;;8.79;100.00
24666;BME280;29726;53.532;-1.478;2024-03-06T06:49:30;100980.00;;;8.77;100.00
24666;BME280;29726;53.532;-1.478;2024-03-06T06:52:14;100981.56;;;8.78;100.00
24666;BME280;29726;53.532;-1.478;2024-03-06T06:54:58;100981.56;;;8.78;100.00
24666;BME280;29726;53.532;-1.478;2024-03-06T06:57:42;100984.78;;;8.76;100.00
24666;BME280;29726;53.532;-1.478;2024-03-06T07:00:25;100981.66;;;8.74;100.00
24666;BME280;29726;53.532;-1.478;2024-03-06T07:03:10;100985.09;;;8.78;100.00
24666;BME280;29726;53.532;-1.478;2024-03-06T07:05:53;100987.88;;;8.78;100.00
24666;BME280;29726;53.532;-1.478;2024-03-06T07:08:37;100991.47;;;8.79;100.00
24666;BME280;29726;53.532;-1.478;2024-03-06T07:11:21;100992.22;;;8.79;100.00
24666;BME280;29726;53.532;-1.478;2024-03-06T07:14:06;100991.13;;;8.77;100.00
24666;BME280;29726;53.532;-1.478;2024-03-06T07:16:50;100992.22;;;8.79;100.00
24666;BME280;29726;53.532;-1.478;2024-03-06T07:19:34;101005.38;;;8.79;100.00
24666;BME280;29726;53.532;-1.478;2024-03-06T07:22:19;101008.84;;;8.83;100.00
24666;BME280;29726;53.532;-1.478;2024-03-06T07:25:03;101008.50;;;8.81;100.00
24666;BME280;29726;53.532;-1.478;2024-03-06T07:27:49;101011.63;;;8.83;100.00
24666;BME280;29726;53.532;-1.478;2024-03-06T07:30:33;101011.63;;;8.83;100.00
24666;BME280;29726;53.532;-1.478;2024-03-06T07:33:18;101007.94;;;8.86;100.00
24666;BME280;29726;53.532;-1.478;2024-03-06T07:36:02;101014.41;;;8.83;100.00
24666;BME280;29726;53.532;-1.478;2024-03-06T07:38:47;101017.53;;;8.85;100.00
24666;BME280;29726;53.532;-1.478;2024-03-06T07:41:31;101008.06;;;8.82;100.00
24666;BME280;29726;53.532;-1.478;2024-03-06T07:44:18;101002.50;;;8.82;100.00
24666;BME280;29726;53.532;-1.478;2024-03-06T07:47:03;100998.50;;;8.83;100.00
24666;BME280;29726;53.532;-1.478;2024-03-06T07:49:47;100977.19;;;8.64;100.00
24666;BME280;29726;53.532;-1.478;2024-03-06T07:52:31;101016.63;;;8.88;100.00
24666;BME280;29726;53.532;-1.478;2024-03-06T07:55:15;101013.19;;;8.84;100.00
24666;BME280;29726;53.532;-1.478;2024-03-06T07:57:59;101016.28;;;8.86;100.00
24666;BME280;29726;53.532;-1.478;2024-03-06T08:00:43;101022.19;;;8.88;100.00
24666;BME280;29726;53.532;-1.478;2024-03-06T08:03:27;101024.66;;;8.86;100.00
24666;BME280;29726;53.532;-1.478;2024-03-06T08:06:11;101023.88;;;8.85;100.00
24666;BME280;29726;53.532;-1.478;2024-03-06T08:08:58;101026.53;;;8.89;100.00
24666;BME280;29726;53.532;-1.478;2024-03-06T08:11:43;101027.09;;;8.84;100.00
24666;BME280;29726;53.532;-1.478;2024-03-06T08:14:27;101038.91;;;8.88;100.00
24666;BME280;29726;53.532;-1.478;2024-03-06T08:17:11;101021.28;;;8.78;100.00
24666;BME280;29726;53.532;-1.478;2024-03-06T08:19:55;101040.78;;;8.91;100.00
24666;BME280;29726;53.532;-1.478;2024-03-06T08:22:40;101042.81;;;8.90;100.00
24666;BME280;29726;53.532;-1.478;2024-03-06T08:25:25;101039.13;;;8.93;100.00
24666;BME280;29726;53.532;-1.478;2024-03-06T08:28:09;101040.28;;;8.96;100.00
24666;BME280;29726;53.532;-1.478;2024-03-06T08:30:54;101038.72;;;8.95;100.00
24666;BME280;29726;53.532;-1.478;2024-03-06T08:33:38;101032.44;;;8.91;100.00
24666;BME280;29726;53.532;-1.478;2024-03-06T08:36:21;101026.53;;;8.89;100.00
24666;BME280;29726;53.532;-1.478;2024-03-06T08:39:05;101026.00;;;8.94;100.00
24666;BME280;29726;53.532;-1.478;2024-03-06T08:41:49;101037.38;;;8.99;100.00
24666;BME280;29726;53.532;-1.478;2024-03-06T08:44:33;101037.81;;;8.98;100.00
24666;BME280;29726;53.532;-1.478;2024-03-06T08:47:17;101045.28;;;9.01;100.00
24666;BME280;29726;53.532;-1.478;2024-03-06T08:50:02;101041.28;;;9.02;100.00
24666;BME280;29726;53.532;-1.478;2024-03-06T08:52:46;101044.06;;;9.02;100.00
24666;BME280;29726;53.532;-1.478;2024-03-06T08:55:30;101040.94;;;9.00;100.00
24666;BME280;29726;53.532;-1.478;2024-03-06T08:58:14;101046.38;;;9.03;100.00
24666;BME280;29726;53.532;-1.478;2024-03-06T09:00:58;101036.59;;;8.99;100.00
24666;BME280;29726;53.532;-1.478;2024-03-06T09:03:42;101053.09;;;9.06;100.00
24666;BME280;29726;53.532;-1.478;2024-03-06T09:06:26;101042.28;;;9.08;100.00
24666;BME280;29726;53.532;-1.478;2024-03-06T09:09:11;101051.41;;;9.08;100.00
24666;BME280;29726;53.532;-1.478;2024-03-06T09:11:58;101042.38;;;9.04;100.00
24666;BME280;29726;53.532;-1.478;2024-03-06T09:14:42;101044.63;;;9.09;100.00
24666;BME280;29726;53.532;-1.478;2024-03-06T09:17:26;101053.56;;;9.17;100.00
24666;BME280;29726;53.532;-1.478;2024-03-06T09:20:10;101061.44;;;9.18;100.00
24666;BME280;29726;53.532;-1.478;2024-03-06T09:22:54;101054.31;;;9.17;100.00
24666;BME280;29726;53.532;-1.478;2024-03-06T09:25:40;101050.88;;;9.13;100.00
24666;BME280;29726;53.532;-1.478;2024-03-06T09:28:24;101063.34;;;9.21;100.00
24666;BME280;29726;53.532;-1.478;2024-03-06T09:31:08;101070.81;;;9.24;100.00
24666;BME280;29726;53.532;-1.478;2024-03-06T09:33:52;101056.22;;;9.20;100.00
24666;BME280;29726;53.532;-1.478;2024-03-06T09:36:36;101037.94;;;9.07;100.00
24666;BME280;29726;53.532;-1.478;2024-03-06T09:39:20;101069.47;;;9.29;100.00
24666;BME280;29726;53.532;-1.478;2024-03-06T09:42:07;101073.72;;;9.33;100.00
24666;BME280;29726;53.532;-1.478;2024-03-06T09:44:51;101074.94;;;9.32;100.00
24666;BME280;29726;53.532;-1.478;2024-03-06T09:47:37;101049.19;;;9.16;100.00
24666;BME280;29726;53.532;-1.478;2024-03-06T09:50:23;101076.19;;;9.31;100.00
24666;BME280;29726;53.532;-1.478;2024-03-06T09:53:10;101083.41;;;9.41;100.00
24666;BME280;29726;53.532;-1.478;2024-03-06T09:55:56;101083.09;;;9.39;100.00
24666;BME280;29726;53.532;-1.478;2024-03-06T09:58:42;101091.34;;;9.43;100.00
24666;BME280;29726;53.532;-1.478;2024-03-06T10:01:27;101088.88;;;9.45;100.00
24666;BME280;29726;53.532;-1.478;2024-03-06T10:04:25;101099.47;;;9.50;100.00
24666;BME280;29726;53.532;-1.478;2024-03-06T10:07:09;101086.44;;;9.47;100.00
24666;BME280;29726;53.532;-1.478;2024-03-06T10:09:55;101076.06;;;9.47;100.00
24666;BME280;29726;53.532;-1.478;2024-03-06T10:12:39;101080.28;;;9.52;100.00
24666;BME280;29726;53.532;-1.478;2024-03-06T10:15:23;101093.25;;;9.58;100.00
24666;BME280;29726;53.532;-1.478;2024-03-06T10:18:16;101098.69;;;9.62;100.00
24666;BME280;29726;53.532;-1.478;2024-03-06T10:21:03;101099.81;;;9.64;100.00
24666;BME280;29726;53.532;-1.478;2024-03-06T10:23:48;101085.63;;;9.59;100.00
24666;BME280;29726;53.532;-1.478;2024-03-06T10:26:32;101096.91;;;9.68;100.00
24666;BME280;29726;53.532;-1.478;2024-03-06T10:29:17;101103.91;;;9.72;100.00
24666;BME280;29726;53.532;-1.478;2024-03-06T10:32:02;101092.75;;;9.72;100.00
24666;BME280;29726;53.532;-1.478;2024-03-06T10:34:46;101086.66;;;9.77;100.00
24666;BME280;29726;53.532;-1.478;2024-03-06T10:37:30;101090.19;;;9.78;100.00
24666;BME280;29726;53.532;-1.478;2024-03-06T10:40:15;101089.31;;;9.81;100.00
24666;BME280;29726;53.532;-1.478;2024-03-06T10:43:02;101092.88;;;9.81;100.00
24666;BME280;29726;53.532;-1.478;2024-03-06T10:45:48;101096.22;;;9.88;100.00
24666;BME280;29726;53.532;-1.478;2024-03-06T10:48:33;101086.41;;;9.84;100.00
24666;BME280;29726;53.532;-1.478;2024-03-06T10:51:19;101088.41;;;9.83;100.00
24666;BME280;29726;53.532;-1.478;2024-03-06T10:54:05;101070.78;;;9.74;100.00
24666;BME280;29726;53.532;-1.478;2024-03-06T10:56:49;101090.84;;;9.94;100.00
24666;BME280;29726;53.532;-1.478;2024-03-06T10:59:34;101101.91;;;9.97;100.00
24666;BME280;29726;53.532;-1.478;2024-03-06T11:02:20;101103.38;;;10.02;100.00
24666;BME280;29726;53.532;-1.478;2024-03-06T11:05:07;101103.94;;;10.09;100.00
24666;BME280;29726;53.532;-1.478;2024-03-06T11:07:53;101108.28;;;10.10;100.00
24666;BME280;29726;53.532;-1.478;2024-03-06T11:10:39;101095.88;;;10.11;100.00
24666;BME280;29726;53.532;-1.478;2024-03-06T11:13:24;101096.97;;;10.14;100.00
24666;BME280;29726;53.532;-1.478;2024-03-06T11:16:12;101109.91;;;10.20;100.00
24666;BME280;29726;53.532;-1.478;2024-03-06T11:19:07;101110.25;;;10.22;100.00
24666;BME280;29726;53.532;-1.478;2024-03-06T11:21:51;101086.72;;;10.11;100.00
24666;BME280;29726;53.532;-1.478;2024-03-06T11:24:35;101107.66;;;10.28;100.00
24666;BME280;29726;53.532;-1.478;2024-03-06T11:27:19;101104.72;;;10.31;100.00
24666;BME280;29726;53.532;-1.478;2024-03-06T11:30:07;101113.78;;;10.35;100.00
24666;BME280;29726;53.532;-1.478;2024-03-06T11:33:01;101114.13;;;10.37;100.00
24666;BME280;29726;53.532;-1.478;2024-03-06T11:36:20;101116.31;;;10.42;100.00
24666;BME280;29726;53.532;-1.478;2024-03-06T11:39:06;101115.41;;;10.45;100.00
24666;BME280;29726;53.532;-1.478;2024-03-06T11:41:51;101100.47;;;10.39;100.00
24666;BME280;29726;53.532;-1.478;2024-03-06T11:44:35;101112.03;;;10.50;100.00
24666;BME280;29726;53.532;-1.478;2024-03-06T11:47:19;101078.06;;;10.30;100.00
24666;BME280;29726;53.532;-1.478;2024-03-06T11:50:05;101115.47;;;10.54;100.00
24666;BME280;29726;53.532;-1.478;2024-03-06T11:52:52;101083.09;;;10.35;100.00
24666;BME280;29726;53.532;-1.478;2024-03-06T11:55:38;101112.13;;;10.59;100.00
24666;BME280;29726;53.532;-1.478;2024-03-06T11:58:23;101112.47;;;10.61;100.00
24666;BME280;29726;53.532;-1.478;2024-03-06T12:01:07;101113.22;;;10.62;100.00
24666;BME280;29726;53.532;-1.478;2024-03-06T12:03:51;101121.03;;;10.67;100.00
24666;BME280;29726;53.532;-1.478;2024-03-06T12:06:36;101109.19;;;10.63;100.00
24666;BME280;29726;53.532;-1.478;2024-03-06T12:09:20;101111.44;;;10.68;100.00
24666;BME280;29726;53.532;-1.478;2024-03-06T12:12:06;101106.28;;;10.66;100.00
24666;BME280;29726;53.532;-1.478;2024-03-06T12:14:59;101089.47;;;10.57;100.00
24666;BME280;29726;53.532;-1.478;2024-03-06T12:17:48;101107.78;;;10.80;100.00
24666;BME280;29726;53.532;-1.478;2024-03-06T12:20:35;101121.00;;;10.79;100.00
24666;BME280;29726;53.532;-1.478;2024-03-06T12:23:24;101114.63;;;10.79;100.00
24666;BME280;29726;53.532;-1.478;2024-03-06T12:26:11;101114.81;;;10.84;100.00
24666;BME280;29726;53.532;-1.478;2024-03-06T12:31:50;101110.31;;;10.87;100.00
24666;BME280;29726;53.532;-1.478;2024-03-06T12:34:34;101114.53;;;10.91;100.00
24666;BME280;29726;53.532;-1.478;2024-03-06T12:37:17;101108.63;;;10.89;100.00
24666;BME280;29726;53.532;-1.478;2024-03-06T12:40:05;101108.19;;;10.91;100.00
24666;BME280;29726;53.532;-1.478;2024-03-06T12:42:49;101108.03;;;10.94;100.00
24666;BME280;29726;53.532;-1.478;2024-03-06T12:45:34;101110.41;;;10.96;100.00
24666;BME280;29726;53.532;-1.478;2024-03-06T12:48:18;101070.19;;;10.72;100.00
24666;BME280;29726;53.532;-1.478;2024-03-06T12:51:02;101111.16;;;10.96;100.00
24666;BME280;29726;53.532;-1.478;2024-03-06T12:53:48;101109.94;;;10.97;100.00
24666;BME280;29726;53.532;-1.478;2024-03-06T12:56:32;101104.00;;;10.95;100.00
24666;BME280;29726;53.532;-1.478;2024-03-06T12:59:16;101109.69;;;11.04;100.00
24666;BME280;29726;53.532;-1.478;2024-03-06T13:02:00;101097.53;;;10.98;100.00
24666;BME280;29726;53.532;-1.478;2024-03-06T13:04:44;101098.19;;;11.02;100.00
24666;BME280;29726;53.532;-1.478;2024-03-06T13:07:28;101111.41;;;11.11;100.00
24666;BME280;29726;53.532;-1.478;2024-03-06T13:10:12;101108.63;;;11.11;100.00
24666;BME280;29726;53.532;-1.478;2024-03-06T13:12:56;101104.25;;;11.10;100.00
24666;BME280;29726;53.532;-1.478;2024-03-06T13:15:40;101100.56;;;11.13;100.00
24666;BME280;29726;53.532;-1.478;2024-03-06T13:18:24;101069.59;;;10.98;100.00
24666;BME280;29726;53.532;-1.478;2024-03-06T13:21:09;101090.50;;;11.15;100.00
24666;BME280;29726;53.532;-1.478;2024-03-06T13:23:53;101103.41;;;11.22;100.00
24666;BME280;29726;53.532;-1.478;2024-03-06T13:26:37;101093.47;;;11.21;100.00
24666;BME280;29726;53.532;-1.478;2024-03-06T13:29:23;101092.09;;;11.25;100.00
24666;BME280;29726;53.532;-1.478;2024-03-06T13:32:07;101087.59;;;11.28;100.00
24666;BME280;29726;53.532;-1.478;2024-03-06T13:34:51;101071.88;;;11.21;100.00
24666;BME280;29726;53.532;-1.478;2024-03-06T13:37:35;101089.34;;;11.34;100.00
24666;BME280;29726;53.532;-1.478;2024-03-06T13:40:19;101084.28;;;11.42;100.00
24666;BME280;29726;53.532;-1.478;2024-03-06T13:43:03;101086.91;;;11.45;100.00
24666;BME280;29726;53.532;-1.478;2024-03-06T13:45:50;101086.34;;;11.50;100.00
24666;BME280;29726;53.532;-1.478;2024-03-06T13:48:35;101084.50;;;11.56;100.00
24666;BME280;29726;53.532;-1.478;2024-03-06T13:51:20;101074.22;;;11.53;100.00
24666;BME280;29726;53.532;-1.478;2024-03-06T13:54:04;101083.31;;;11.66;100.00
24666;BME280;29726;53.532;-1.478;2024-03-06T13:56:48;101088.28;;;11.71;100.00
24666;BME280;29726;53.532;-1.478;2024-03-06T13:59:33;101076.47;;;11.67;100.00
24666;BME280;29726;53.532;-1.478;2024-03-06T14:02:17;101078.06;;;11.77;100.00
24666;BME280;29726;53.532;-1.478;2024-03-06T14:05:01;101089.88;;;11.81;100.00
24666;BME280;29726;53.532;-1.478;2024-03-06T14:07:45;101078.38;;;11.79;100.00
24666;BME280;29726;53.532;-1.478;2024-03-06T14:10:29;101084.16;;;11.84;100.00